Time;durP1;ratioP1;P1;durP2;ratioP2;P2;SDS_P1;SDS_P2;PMS_P1;PMS_P2;Temp;Humidity;BMP_temperature;BMP_pressure;BME280_temperature;BME280_humidity;BME280_pressure;Samples;Min_cycle;Max_cycle;Signal;HPM_P1;HPM_P2
2022/12/26 00:00:27;;;;;;;4.70;2.65;;;;;;;;;;5091654;28;20065;-72
2022/12/26 00:02:53;;;;;;;6.85;2.88;;;;;;;;;;5091154;28;20038;-71
2022/12/26 00:05:18;;;;;;;5.85;2.65;;;;;;;;;;5091867;28;20012;-72
2022/12/26 00:07:44;;;;;;;3.28;1.63;;;;;;;;;;5090904;28;20042;-72
2022/12/26 00:10:10;;;;;;;5.18;2.50;;;;;;;;;;5091328;28;20479;-70
2022/12/26 00:12:35;;;;;;;2.90;1.75;;;;;;;;;;5092273;28;20016;-70
2022/12/26 00:15:01;;;;;;;8.02;3.30;;;;;;;;;;5090791;28;20020;-70
2022/12/26 00:17:27;;;;;;;3.03;1.77;;;;;;;;;;5092491;28;20080;-70
2022/12/26 00:19:52;;;;;;;5.43;2.90;;;;;;;;;;5090775;28;20061;-71
2022/12/26 00:22:18;;;;;;;3.35;1.45;;;;;;;;;;5091663;28;20488;-71
2022/12/26 00:24:43;;;;;;;3.88;1.85;;;;;;;;;;5090923;28;20020;-71
2022/12/26 00:27:09;;;;;;;7.82;4.00;;;;;;;;;;5092134;28;20028;-70
2022/12/26 00:29:34;;;;;;;2.85;1.67;;;;;;;;;;5090877;28;20495;-70
2022/12/26 00:32:00;;;;;;;6.30;3.53;;;;;;;;;;5094578;28;20016;-70
2022/12/26 00:34:25;;;;;;;5.05;2.28;;;;;;;;;;5095842;28;20029;-70
2022/12/26 00:36:50;;;;;;;8.25;3.75;;;;;;;;;;5094451;28;20016;-71
2022/12/26 00:39:16;;;;;;;4.20;1.40;;;;;;;;;;5094263;28;20073;-70
2022/12/26 00:41:43;;;;;;;4.43;1.88;;;;;;;;;;5095796;28;20020;-72
2022/12/26 00:44:10;;;;;;;3.20;2.05;;;;;;;;;;5094672;28;20027;-70
2022/12/26 00:46:35;;;;;;;3.70;2.17;;;;;;;;;;5095708;28;20020;-71
2022/12/26 00:49:01;;;;;;;4.35;1.98;;;;;;;;;;5095423;28;20039;-70
2022/12/26 00:51:26;;;;;;;5.93;2.33;;;;;;;;;;5096776;28;20023;-70
2022/12/26 00:53:52;;;;;;;5.30;2.78;;;;;;;;;;5095552;28;20024;-71
2022/12/26 00:56:17;;;;;;;6.90;2.22;;;;;;;;;;5094367;28;20023;-70
2022/12/26 00:58:43;;;;;;;6.57;3.30;;;;;;;;;;5094240;28;20089;-70
2022/12/26 01:01:20;;;;;;;3.63;1.92;;;;;;;;;;5093613;28;20043;-70
2022/12/26 01:03:47;;;;;;;8.00;4.35;;;;;;;;;;5095362;28;20017;-70
2022/12/26 01:06:13;;;;;;;5.10;2.67;;;;;;;;;;5095319;28;20055;-70
2022/12/26 01:08:38;;;;;;;7.78;2.67;;;;;;;;;;5093848;28;20464;-70
2022/12/26 01:11:06;;;;;;;12.50;4.32;;;;;;;;;;5094927;28;20016;-70
2022/12/26 01:13:31;;;;;;;9.13;1.92;;;;;;;;;;5095017;28;20012;-70
2022/12/26 01:15:58;;;;;;;8.70;4.22;;;;;;;;;;5095265;28;20020;-69
2022/12/26 01:18:24;;;;;;;9.90;4.97;;;;;;;;;;5094742;28;20476;-70
2022/12/26 01:20:49;;;;;;;7.78;3.80;;;;;;;;;;5094834;28;20019;-71
2022/12/26 01:23:15;;;;;;;6.30;2.47;;;;;;;;;;5093638;28;20073;-69
2022/12/26 01:25:42;;;;;;;9.82;3.83;;;;;;;;;;5094897;28;20056;-71
2022/12/26 01:28:07;;;;;;;10.05;4.80;;;;;;;;;;5094889;28;20031;-70
2022/12/26 01:30:33;;;;;;;8.32;3.00;;;;;;;;;;5093640;28;20020;-70
2022/12/26 01:32:58;;;;;;;5.78;2.88;;;;;;;;;;5093324;28;20388;-70
2022/12/26 01:35:23;;;;;;;8.57;3.30;;;;;;;;;;5095236;28;20027;-70
2022/12/26 01:37:49;;;;;;;5.05;2.60;;;;;;;;;;5094738;28;20043;-70
2022/12/26 01:40:14;;;;;;;3.70;2.45;;;;;;;;;;5093572;28;20020;-70
2022/12/26 01:42:40;;;;;;;7.47;2.53;;;;;;;;;;5095036;28;20077;-69
2022/12/26 01:45:16;;;;;;;6.22;2.65;;;;;;;;;;5092863;28;20103;-69
2022/12/26 01:47:45;;;;;;;11.00;4.85;;;;;;;;;;5094242;28;20043;-69
2022/12/26 01:50:29;;;;;;;8.90;4.75;;;;;;;;;;5094623;28;20023;-71
2022/12/26 01:52:56;;;;;;;6.45;3.25;;;;;;;;;;5093137;28;20020;-70
2022/12/26 01:55:21;;;;;;;7.10;2.97;;;;;;;;;;5094118;28;20028;-70
2022/12/26 01:57:51;;;;;;;8.68;3.28;;;;;;;;;;5093040;28;20027;-68
2022/12/26 02:00:16;;;;;;;12.45;5.50;;;;;;;;;;5094335;28;20474;-71
2022/12/26 02:05:33;;;;;;;12.48;3.13;;;;;;;;;;5094245;28;20400;-70
2022/12/26 02:08:03;;;;;;;6.93;3.78;;;;;;;;;;5093880;28;20032;-70
2022/12/26 02:10:30;;;;;;;12.82;6.13;;;;;;;;;;5094089;28;20417;-70
2022/12/26 02:12:56;;;;;;;7.80;3.10;;;;;;;;;;5093458;28;20027;-78
2022/12/26 02:15:22;;;;;;;8.07;4.05;;;;;;;;;;5092643;28;20062;-70
2022/12/26 02:17:47;;;;;;;11.02;4.90;;;;;;;;;;5093934;28;20061;-70
2022/12/26 02:20:24;;;;;;;12.70;5.90;;;;;;;;;;5092279;28;20393;-70
2022/12/26 02:22:56;;;;;;;4.22;2.58;;;;;;;;;;5092271;28;20062;-72
2022/12/26 02:25:27;;;;;;;10.27;4.95;;;;;;;;;;5092279;28;20107;-70
2022/12/26 02:28:02;;;;;;;6.28;2.67;;;;;;;;;;5093698;28;20052;-70
2022/12/26 02:30:27;;;;;;;3.03;1.80;;;;;;;;;;5092382;28;20070;-70
2022/12/26 02:32:53;;;;;;;7.60;3.58;;;;;;;;;;5093676;28;20028;-70
2022/12/26 02:35:24;;;;;;;4.15;1.95;;;;;;;;;;5093070;28;20018;-68
2022/12/26 02:37:53;;;;;;;8.90;4.72;;;;;;;;;;5093268;28;20012;-69
2022/12/26 02:40:26;;;;;;;6.30;3.28;;;;;;;;;;5093984;28;20024;-70
2022/12/26 02:43:03;;;;;;;9.45;4.45;;;;;;;;;;5093114;28;20017;-71
2022/12/26 02:48:57;;;;;;;3.13;1.90;;;;;;;;;;5093292;28;20049;-68
2022/12/26 03:14:28;;;;;;;4.68;2.50;;;;;;;;;;5092900;28;20066;-69
2022/12/26 03:20:00;;;;;;;3.22;1.75;;;;;;;;;;5092748;28;20053;-70
2022/12/26 03:22:59;;;;;;;7.40;3.10;;;;;;;;;;5092804;28;20103;-70
2022/12/26 03:28:27;;;;;;;9.00;4.72;;;;;;;;;;5092420;28;20050;-69
2022/12/26 03:30:54;;;;;;;8.38;4.95;;;;;;;;;;5092521;28;20008;-71
2022/12/26 03:36:28;;;;;;;9.35;4.18;;;;;;;;;;5092574;28;20396;-70
2022/12/26 03:39:06;;;;;;;8.73;4.80;;;;;;;;;;5091538;28;20024;-70
2022/12/26 04:46:49;;;;;;;7.30;3.78;;;;;;;;;;5082922;28;20063;-72
2022/12/26 04:52:00;;;;;;;9.45;3.97;;;;;;;;;;5095613;28;20023;-70
2022/12/26 04:54:26;;;;;;;7.32;3.13;;;;;;;;;;5094114;28;20073;-68
2022/12/26 04:56:51;;;;;;;12.10;4.75;;;;;;;;;;5095435;28;20415;-70
2022/12/26 04:59:17;;;;;;;9.50;3.72;;;;;;;;;;5093590;28;20016;-69
2022/12/26 05:09:59;;;;;;;5.43;2.60;;;;;;;;;;5094356;28;20077;-69
2022/12/26 05:12:25;;;;;;;3.05;1.52;;;;;;;;;;5095250;28;20038;-70
2022/12/26 05:14:50;;;;;;;13.10;6.93;;;;;;;;;;5092947;28;20016;-68
2022/12/26 05:31:00;;;;;;;;;;;;;;;;;;5094158;28;20027;-69
2022/12/26 05:36:11;;;;;;;6.27;3.93;;;;;;;;;;5093641;28;20024;-69
2022/12/26 05:38:36;;;;;;;3.65;1.80;;;;;;;;;;5092222;28;20045;-69
2022/12/26 05:41:02;;;;;;;6.05;2.47;;;;;;;;;;5093727;28;20463;-69
2022/12/26 05:43:28;;;;;;;5.88;3.10;;;;;;;;;;5109638;28;20387;-69
2022/12/26 05:45:53;;;;;;;8.82;5.10;;;;;;;;;;5093555;28;20149;-69
2022/12/26 05:48:19;;;;;;;5.30;2.35;;;;;;;;;;5093421;28;20035;-68
2022/12/26 05:50:44;;;;;;;6.45;2.70;;;;;;;;;;5093566;28;20065;-70
2022/12/26 05:53:09;;;;;;;5.85;2.85;;;;;;;;;;5094002;28;20091;-71
2022/12/26 05:55:35;;;;;;;9.70;5.80;;;;;;;;;;5093795;28;20031;-69
2022/12/26 05:58:01;;;;;;;9.20;3.90;;;;;;;;;;5093557;28;20431;-68
2022/12/26 06:00:28;;;;;;;5.53;3.30;;;;;;;;;;5092039;28;20369;-68
2022/12/26 06:02:53;;;;;;;13.73;8.02;;;;;;;;;;5040720;28;1480108;-69
2022/12/26 06:05:19;;;;;;;10.15;5.28;;;;;;;;;;5094361;28;20038;-69
2022/12/26 06:07:44;;;;;;;9.70;5.63;;;;;;;;;;5093895;28;20503;-70
2022/12/26 06:10:09;;;;;;;6.85;3.42;;;;;;;;;;5094143;28;20024;-70
2022/12/26 06:12:35;;;;;;;2.35;1.52;;;;;;;;;;5093146;28;20012;-68
2022/12/26 06:15:01;;;;;;;6.55;2.90;;;;;;;;;;5094190;28;20012;-69
2022/12/26 06:17:26;;;;;;;3.80;2.42;;;;;;;;;;5094086;28;20460;-69
2022/12/26 06:19:52;;;;;;;9.77;4.68;;;;;;;;;;5092549;28;20024;-72
2022/12/26 06:22:18;;;;;;;8.55;4.07;;;;;;;;;;5093716;28;20045;-71
2022/12/26 06:24:43;;;;;;;7.60;3.10;;;;;;;;;;5092223;28;20020;-69
2022/12/26 06:27:09;;;;;;;9.95;5.00;;;;;;;;;;5092133;28;20020;-69
2022/12/26 06:29:35;;;;;;;8.40;4.47;;;;;;;;;;5092708;28;20103;-70
2022/12/26 06:32:00;;;;;;;7.00;2.67;;;;;;;;;;5093663;28;20486;-69
2022/12/26 06:34:29;;;;;;;8.50;3.38;;;;;;;;;;5093545;28;20074;-71
2022/12/26 06:36:54;;;;;;;4.82;2.47;;;;;;;;;;5093364;28;20323;-69
2022/12/26 06:39:20;;;;;;;6.05;2.95;;;;;;;;;;5093198;28;20069;-69
2022/12/26 06:41:46;;;;;;;5.40;2.58;;;;;;;;;;5093922;28;20051;-69
2022/12/26 06:44:12;;;;;;;7.50;3.17;;;;;;;;;;5093421;28;20012;-70
2022/12/26 06:46:37;;;;;;;9.02;4.03;;;;;;;;;;5092314;28;20122;-68
2022/12/26 06:49:05;;;;;;;4.65;2.60;;;;;;;;;;5092980;28;20034;-69
2022/12/26 06:51:31;;;;;;;7.50;4.32;;;;;;;;;;5093266;28;20020;-69
2022/12/26 06:53:58;;;;;;;6.03;3.45;;;;;;;;;;5093371;28;20020;-68
2022/12/26 06:56:25;;;;;;;10.15;3.30;;;;;;;;;;5093845;28;20020;-68
2022/12/26 06:58:54;;;;;;;3.53;1.65;;;;;;;;;;5091941;28;20074;-70
2022/12/26 07:01:20;;;;;;;7.75;3.55;;;;;;;;;;5092639;28;20048;-70
2022/12/26 07:03:47;;;;;;;9.45;4.88;;;;;;;;;;5091763;28;20061;-68
2022/12/26 07:06:26;;;;;;;10.80;2.83;;;;;;;;;;5092800;28;20031;-69
2022/12/26 07:08:53;;;;;;;7.95;3.78;;;;;;;;;;5093047;28;20039;-69
2022/12/26 07:11:21;;;;;;;9.75;4.32;;;;;;;;;;5092873;28;20043;-69
2022/12/26 07:13:46;;;;;;;9.27;3.17;;;;;;;;;;5091522;28;20023;-69
2022/12/26 07:16:12;;;;;;;4.25;2.50;;;;;;;;;;5092692;28;20380;-69
2022/12/26 07:18:38;;;;;;;5.05;2.83;;;;;;;;;;5092553;28;20023;-70
2022/12/26 07:21:04;;;;;;;8.40;4.60;;;;;;;;;;5090800;28;20031;-69
2022/12/26 07:23:30;;;;;;;8.85;4.75;;;;;;;;;;5091349;28;20046;-69
2022/12/26 07:25:56;;;;;;;7.28;3.45;;;;;;;;;;5093028;28;20016;-70
2022/12/26 07:28:22;;;;;;;10.00;3.22;;;;;;;;;;5092442;28;20028;-69
2022/12/26 07:30:49;;;;;;;6.03;3.80;;;;;;;;;;5092659;28;20039;-69
2022/12/26 07:33:14;;;;;;;6.40;2.45;;;;;;;;;;5091143;28;20031;-70
2022/12/26 07:35:40;;;;;;;4.10;2.10;;;;;;;;;;5091082;28;20384;-69
2022/12/26 07:38:05;;;;;;;4.97;2.30;;;;;;;;;;5092544;28;20059;-69
2022/12/26 07:40:31;;;;;;;6.28;2.60;;;;;;;;;;5092361;28;20016;-68
2022/12/26 07:42:56;;;;;;;6.30;2.72;;;;;;;;;;5090928;28;20024;-70
2022/12/26 07:45:22;;;;;;;3.65;2.22;;;;;;;;;;5092213;28;20020;-71
2022/12/26 07:47:47;;;;;;;5.45;2.63;;;;;;;;;;5092258;28;20118;-69
2022/12/26 07:50:12;;;;;;;4.00;2.03;;;;;;;;;;5092222;28;20107;-70
2022/12/26 07:52:38;;;;;;;4.63;1.88;;;;;;;;;;5092347;28;20016;-71
2022/12/26 07:55:04;;;;;;;5.32;2.15;;;;;;;;;;5092434;28;20020;-71
2022/12/26 07:57:29;;;;;;;7.05;3.85;;;;;;;;;;5092365;28;20379;-70
2022/12/26 07:59:55;;;;;;;7.43;3.10;;;;;;;;;;5090682;28;20065;-70
2022/12/26 08:02:20;;;;;;;5.38;2.35;;;;;;;;;;5092064;28;20472;-69
2022/12/26 08:04:45;;;;;;;6.35;2.13;;;;;;;;;;5090449;28;20085;-69
2022/12/26 08:07:11;;;;;;;9.25;3.70;;;;;;;;;;5091043;28;20024;-71
2022/12/26 08:09:41;;;;;;;4.72;2.05;;;;;;;;;;5092566;28;20039;-72
2022/12/26 08:12:07;;;;;;;7.20;3.13;;;;;;;;;;5091069;28;20353;-70
2022/12/26 08:14:32;;;;;;;10.23;3.92;;;;;;;;;;5090500;28;20031;-70
2022/12/26 08:16:58;;;;;;;3.67;1.90;;;;;;;;;;5091583;28;20008;-71
2022/12/26 08:19:23;;;;;;;3.53;1.85;;;;;;;;;;5091793;28;20403;-71
2022/12/26 08:21:49;;;;;;;3.50;1.85;;;;;;;;;;5092288;28;20103;-71
2022/12/26 08:24:14;;;;;;;2.90;1.80;;;;;;;;;;5091955;28;20372;-70
2022/12/26 08:26:40;;;;;;;7.80;3.15;;;;;;;;;;5092299;28;20027;-71
2022/12/26 08:29:05;;;;;;;6.25;2.72;;;;;;;;;;5090156;28;20526;-72
2022/12/26 08:31:31;;;;;;;9.32;4.68;;;;;;;;;;5090526;28;20013;-70
2022/12/26 08:33:56;;;;;;;10.82;3.38;;;;;;;;;;5090240;28;20134;-69
2022/12/26 08:36:22;;;;;;;9.27;3.70;;;;;;;;;;5091705;28;20079;-71
2022/12/26 08:38:47;;;;;;;9.77;4.32;;;;;;;;;;5091756;28;20017;-69
2022/12/26 08:41:13;;;;;;;5.00;2.63;;;;;;;;;;5091381;28;20039;-72
2022/12/26 08:43:38;;;;;;;8.65;2.28;;;;;;;;;;5090378;28;20461;-70
2022/12/26 08:46:04;;;;;;;5.28;3.03;;;;;;;;;;5090660;28;20012;-71
2022/12/26 08:48:29;;;;;;;13.13;5.93;;;;;;;;;;5090360;28;20527;-70
2022/12/26 08:50:56;;;;;;;7.75;4.32;;;;;;;;;;5091575;28;20384;-71
2022/12/26 08:53:21;;;;;;;13.50;6.13;;;;;;;;;;5094130;28;20016;-70
2022/12/26 08:55:47;;;;;;;8.77;3.47;;;;;;;;;;5095269;28;20069;-70
2022/12/26 08:58:12;;;;;;;15.18;4.15;;;;;;;;;;5093884;28;20027;-72
2022/12/26 09:00:37;;;;;;;10.43;3.38;;;;;;;;;;5095144;28;20015;-71
2022/12/26 09:03:03;;;;;;;7.90;3.20;;;;;;;;;;5094648;28;20127;-71
2022/12/26 09:05:29;;;;;;;8.80;4.63;;;;;;;;;;5093902;28;20061;-70
2022/12/26 09:07:55;;;;;;;1.35;1.02;;;;;;;;;;5093770;28;20035;-70
2022/12/26 09:10:20;;;;;;;2.25;1.42;;;;;;;;;;5095308;28;20019;-71
2022/12/26 09:12:47;;;;;;;4.00;1.20;;;;;;;;;;5095485;28;20027;-70
2022/12/26 09:15:12;;;;;;;8.38;4.07;;;;;;;;;;5095132;28;20400;-69
2022/12/26 09:17:38;;;;;;;2.03;1.38;;;;;;;;;;5094936;28;20012;-69
2022/12/26 09:20:03;;;;;;;4.38;2.08;;;;;;;;;;5094689;28;20070;-71
2022/12/26 09:25:13;;;;;;;9.35;4.22;;;;;;;;;;5094310;28;20505;-68
2022/12/26 09:27:38;;;;;;;9.50;3.78;;;;;;;;;;5093190;28;20136;-69
2022/12/26 09:30:04;;;;;;;6.80;3.47;;;;;;;;;;5094347;28;20020;-70
2022/12/26 09:32:33;;;;;;;5.63;2.08;;;;;;;;;;5094396;28;20027;-70
2022/12/26 09:34:59;;;;;;;9.60;4.00;;;;;;;;;;5094318;28;20026;-72
2022/12/26 09:37:24;;;;;;;5.43;2.25;;;;;;;;;;5093060;28;20095;-69
2022/12/26 09:39:50;;;;;;;11.18;5.18;;;;;;;;;;5094295;28;20428;-69
2022/12/26 09:42:34;;;;;;;8.32;3.33;;;;;;;;;;5092791;28;20089;-70
2022/12/26 09:45:18;;;;;;;8.45;2.80;;;;;;;;;;5094357;28;20027;-70
2022/12/26 09:47:53;;;;;;;2.42;1.65;;;;;;;;;;5094008;28;20361;-71
2022/12/26 09:50:19;;;;;;;;;;;;;;;;;;5094148;28;20186;-71
2022/12/26 09:52:48;;;;;;;6.65;3.45;;;;;;;;;;5093715;28;20383;-70
2022/12/26 09:55:37;;;;;;;15.25;6.60;;;;;;;;;;5093846;28;20024;-71
2022/12/26 09:58:26;;;;;;;3.97;2.53;;;;;;;;;;5082478;28;20028;-72
2022/12/26 10:00:55;;;;;;;5.05;3.40;;;;;;;;;;5081565;28;20139;-68
2022/12/26 10:03:22;;;;;;;4.85;2.72;;;;;;;;;;5092348;28;20127;-69
2022/12/26 10:06:19;;;;;;;14.10;5.88;;;;;;;;;;5093783;28;20480;-71
2022/12/26 10:09:00;;;;;;;5.70;2.35;;;;;;;;;;5059625;28;20036;-70
2022/12/26 10:11:33;;;;;;;7.95;3.50;;;;;;;;;;5093656;28;20457;-70
2022/12/26 10:14:07;;;;;;;16.35;7.40;;;;;;;;;;5093530;28;20057;-71
2022/12/26 10:16:38;;;;;;;18.60;7.88;;;;;;;;;;5092391;28;20020;-69
2022/12/26 10:19:22;;;;;;;19.75;10.02;;;;;;;;;;5093778;28;20020;-69
2022/12/26 10:22:06;;;;;;;12.85;5.47;;;;;;;;;;5092104;28;20102;-71
2022/12/26 10:24:34;;;;;;;21.08;7.35;;;;;;;;;;5092316;28;20413;-70
2022/12/26 10:27:02;;;;;;;20.92;8.27;;;;;;;;;;5091272;28;20016;-72
2022/12/26 10:29:35;;;;;;;22.05;9.95;;;;;;;;;;5093441;28;20040;-71
2022/12/26 10:32:01;;;;;;;11.52;5.97;;;;;;;;;;5092102;28;20023;-70
2022/12/26 10:34:40;;;;;;;19.80;8.30;;;;;;;;;;5093280;28;20372;-73
2022/12/26 10:37:09;;;;;;;20.02;10.10;;;;;;;;;;5093172;28;20472;-71
2022/12/26 10:39:40;;;;;;;16.00;8.50;;;;;;;;;;5093045;28;20043;-69
2022/12/26 10:42:29;;;;;;;20.75;9.23;;;;;;;;;;5093234;28;20069;-69
2022/12/26 10:44:54;;;;;;;25.42;12.05;;;;;;;;;;5081147;28;20028;-69
2022/12/26 10:47:25;;;;;;;26.35;9.77;;;;;;;;;;5092715;28;20496;-69
2022/12/26 10:49:50;;;;;;;8.50;3.65;;;;;;;;;;5093497;28;20027;-69
2022/12/26 10:52:17;;;;;;;25.17;12.13;;;;;;;;;;5093122;28;20024;-70
2022/12/26 10:54:44;;;;;;;25.70;11.27;;;;;;;;;;5092820;28;20091;-68
2022/12/26 10:57:10;;;;;;;26.65;13.13;;;;;;;;;;5092849;28;20012;-71
2022/12/26 10:59:39;;;;;;;9.80;4.53;;;;;;;;;;5092993;28;20095;-69
2022/12/26 11:02:13;;;;;;;11.60;5.15;;;;;;;;;;5092895;28;20048;-69
2022/12/26 11:04:38;;;;;;;16.83;9.13;;;;;;;;;;5092646;28;20027;-70
2022/12/26 11:07:08;;;;;;;25.02;12.35;;;;;;;;;;5092668;28;20016;-69
2022/12/26 11:09:36;;;;;;;31.23;12.18;;;;;;;;;;5092101;28;20388;-71
2022/12/26 11:12:02;;;;;;;8.90;3.78;;;;;;;;;;5091258;28;20023;-69
2022/12/26 11:14:41;;;;;;;20.67;8.75;;;;;;;;;;5092875;28;20099;-71
2022/12/26 11:17:10;;;;;;;9.68;5.15;;;;;;;;;;5091349;28;20024;-71
2022/12/26 11:19:37;;;;;;;26.65;12.88;;;;;;;;;;5093311;28;20034;-70
2022/12/26 11:22:17;;;;;;;23.33;8.73;;;;;;;;;;5092187;28;20066;-70
2022/12/26 11:24:43;;;;;;;23.52;10.57;;;;;;;;;;5090353;28;20032;-69
2022/12/26 11:27:19;;;;;;;25.20;12.50;;;;;;;;;;5092349;28;20137;-70
2022/12/26 11:29:44;;;;;;;35.78;13.75;;;;;;;;;;5092134;28;20030;-70
2022/12/26 11:32:16;;;;;;;20.90;7.82;;;;;;;;;;5092225;28;20020;-69
2022/12/26 11:34:46;;;;;;;19.35;9.85;;;;;;;;;;5092170;28;20012;-69
2022/12/26 11:37:26;;;;;;;20.67;11.07;;;;;;;;;;5090481;28;20404;-69
2022/12/26 11:39:52;;;;;;;17.65;9.13;;;;;;;;;;5092089;28;20031;-69
2022/12/26 11:42:19;;;;;;;23.73;10.38;;;;;;;;;;5092094;28;20020;-70
2022/12/26 11:44:45;;;;;;;25.02;11.20;;;;;;;;;;5090330;28;20016;-71
2022/12/26 11:47:12;;;;;;;25.25;10.50;;;;;;;;;;5090273;28;20020;-70
2022/12/26 11:49:40;;;;;;;11.63;5.65;;;;;;;;;;5090351;28;20413;-69
2022/12/26 11:52:24;;;;;;;15.50;8.77;;;;;;;;;;5090902;28;20043;-71
2022/12/26 11:54:50;;;;;;;16.17;8.23;;;;;;;;;;5091848;28;20099;-69
2022/12/26 11:57:21;;;;;;;18.48;9.52;;;;;;;;;;5091723;28;20059;-71
2022/12/26 11:59:47;;;;;;;21.13;10.35;;;;;;;;;;5091811;28;20019;-70
2022/12/26 12:02:17;;;;;;;8.68;4.22;;;;;;;;;;5091864;28;20040;-67
2022/12/26 12:04:43;;;;;;;19.60;8.75;;;;;;;;;;5090782;28;20093;-71
2022/12/26 12:07:32;;;;;;;15.50;7.35;;;;;;;;;;5090356;28;20107;-71
2022/12/26 12:10:20;;;;;;;13.35;6.75;;;;;;;;;;5083548;28;20074;-71
2022/12/26 12:12:54;;;;;;;8.85;3.50;;;;;;;;;;5083215;28;20029;-70
2022/12/26 12:15:39;;;;;;;12.32;7.47;;;;;;;;;;5090339;28;20020;-71
2022/12/26 12:18:08;;;;;;;14.88;8.98;;;;;;;;;;5091033;28;20039;-70
2022/12/26 12:20:48;;;;;;;18.95;9.95;;;;;;;;;;5091640;28;20388;-71
2022/12/26 12:23:34;;;;;;;12.25;5.05;;;;;;;;;;5091493;28;20442;-71
2022/12/26 12:26:06;;;;;;;11.30;5.57;;;;;;;;;;5090896;28;20032;-71
2022/12/26 12:28:34;;;;;;;10.77;4.97;;;;;;;;;;5095853;28;20361;-72
2022/12/26 12:31:04;;;;;;;17.05;9.73;;;;;;;;;;5095518;28;20041;-71
2022/12/26 12:33:41;;;;;;;17.80;8.02;;;;;;;;;;5098858;28;20027;-71
2022/12/26 12:36:25;;;;;;;16.88;9.50;;;;;;;;;;5100191;28;20031;-70
2022/12/26 12:38:59;;;;;;;18.60;6.65;;;;;;;;;;5094152;28;20012;-71
2022/12/26 12:41:37;;;;;;;11.43;3.33;;;;;;;;;;5095646;28;20024;-71
2022/12/26 12:44:05;;;;;;;14.30;6.68;;;;;;;;;;5095130;28;20035;-70
2022/12/26 12:46:49;;;;;;;19.63;8.82;;;;;;;;;;5094498;28;20057;-70
2022/12/26 12:49:37;;;;;;;17.33;8.13;;;;;;;;;;5093601;28;20404;-71
2022/12/26 12:52:22;;;;;;;18.48;7.32;;;;;;;;;;5094159;28;20510;-70
2022/12/26 12:54:53;;;;;;;15.68;8.40;;;;;;;;;;5095125;28;20012;-70
2022/12/26 12:57:37;;;;;;;21.92;9.23;;;;;;;;;;5094838;28;20545;-69
2022/12/26 13:00:03;;;;;;;19.95;11.52;;;;;;;;;;5095322;28;20361;-70
2022/12/26 13:02:55;;;;;;;24.48;11.70;;;;;;;;;;5093581;28;20052;-71
2022/12/26 13:05:42;;;;;;;26.70;10.50;;;;;;;;;;5091818;28;20028;-73
2022/12/26 13:08:33;;;;;;;14.50;7.15;;;;;;;;;;5093627;28;20067;-70
2022/12/26 13:11:01;;;;;;;10.82;6.32;;;;;;;;;;5095218;28;20016;-71
2022/12/26 13:13:40;;;;;;;12.32;6.95;;;;;;;;;;5093566;28;20549;-71
2022/12/26 13:16:16;;;;;;;19.73;9.90;;;;;;;;;;5093547;28;20017;-72
2022/12/26 13:18:50;;;;;;;4.82;2.25;;;;;;;;;;5094935;28;20384;-72
2022/12/26 13:21:16;;;;;;;13.50;6.35;;;;;;;;;;5094520;28;20028;-73
2022/12/26 13:26:37;;;;;;;21.63;8.77;;;;;;;;;;5095579;28;20089;-70
2022/12/26 13:29:09;;;;;;;11.07;7.32;;;;;;;;;;5093152;28;20117;-70
2022/12/26 13:31:35;;;;;;;18.58;9.30;;;;;;;;;;5092833;28;20024;-71
2022/12/26 13:34:01;;;;;;;18.75;8.88;;;;;;;;;;5094104;28;20099;-71
2022/12/26 13:36:38;;;;;;;4.00;2.97;;;;;;;;;;5093099;28;20107;-71
2022/12/26 13:39:03;;;;;;;18.42;8.00;;;;;;;;;;5092730;28;20369;-72
2022/12/26 13:44:16;;;;;;;15.95;7.60;;;;;;;;;;5094327;28;20497;-72
2022/12/26 13:46:43;;;;;;;20.35;8.93;;;;;;;;;;5094792;28;20031;-74
2022/12/26 13:49:24;;;;;;;19.15;10.43;;;;;;;;;;5092760;28;20028;-72
2022/12/26 13:51:50;;;;;;;17.52;8.40;;;;;;;;;;5092590;28;20055;-73
2022/12/26 13:54:17;;;;;;;14.48;7.68;;;;;;;;;;5093981;28;20027;-71
2022/12/26 13:56:42;;;;;;;14.57;8.98;;;;;;;;;;5092629;28;20024;-71
2022/12/26 13:59:25;;;;;;;14.55;8.38;;;;;;;;;;5094007;28;20019;-71
2022/12/26 14:01:57;;;;;;;8.27;5.05;;;;;;;;;;5093969;28;20048;-72
2022/12/26 14:04:41;;;;;;;17.65;8.63;;;;;;;;;;5092697;28;20016;-72
2022/12/26 14:07:18;;;;;;;18.08;7.18;;;;;;;;;;5091919;28;20073;-71
2022/12/26 14:09:54;;;;;;;13.98;7.13;;;;;;;;;;5093741;28;20040;-71
2022/12/26 14:12:20;;;;;;;17.23;9.43;;;;;;;;;;5092329;28;20024;-74
2022/12/26 14:14:53;;;;;;;21.50;9.90;;;;;;;;;;5093852;28;20095;-73
2022/12/26 14:17:21;;;;;;;18.23;8.45;;;;;;;;;;5092339;28;20381;-72
2022/12/26 14:19:59;;;;;;;10.52;4.95;;;;;;;;;;5092361;28;20398;-72
2022/12/26 14:22:24;;;;;;;15.20;7.75;;;;;;;;;;5092558;28;20024;-71
2022/12/26 14:24:56;;;;;;;14.05;7.90;;;;;;;;;;5092374;28;20020;-72
2022/12/26 14:27:24;;;;;;;13.98;6.43;;;;;;;;;;5092608;28;20032;-71
2022/12/26 14:30:19;;;;;;;12.85;7.43;;;;;;;;;;5092047;28;20035;-74
2022/12/26 14:32:45;;;;;;;12.70;7.75;;;;;;;;;;5038170;28;20061;-73
2022/12/26 14:35:20;;;;;;;15.65;8.32;;;;;;;;;;5093592;28;20101;-71
2022/12/26 14:37:45;;;;;;;;;;;;;;;;;;5094440;28;20035;-73
2022/12/26 14:40:24;;;;;;;15.77;8.82;;;;;;;;;;5093376;28;19904;-72
2022/12/26 14:43:11;;;;;;;13.65;7.75;;;;;;;;;;5093282;28;20026;-71
2022/12/26 14:45:36;;;;;;;25.17;9.07;;;;;;;;;;5093274;28;20136;-72
2022/12/26 14:48:02;;;;;;;14.18;8.20;;;;;;;;;;5091399;28;20976;-71
2022/12/26 14:50:34;;;;;;;15.57;8.23;;;;;;;;;;5090901;28;20039;-72
2022/12/26 14:53:18;;;;;;;18.65;10.60;;;;;;;;;;5091284;28;20032;-73
2022/12/26 14:55:50;;;;;;;6.57;3.72;;;;;;;;;;5091696;28;20085;-72
2022/12/26 14:58:29;;;;;;;17.30;11.20;;;;;;;;;;5091562;28;20028;-71
2022/12/26 15:00:55;;;;;;;16.30;8.80;;;;;;;;;;5091555;28;20028;-70
2022/12/26 15:03:24;;;;;;;20.10;11.52;;;;;;;;;;5090843;28;20478;-72
2022/12/26 15:05:51;;;;;;;21.38;12.30;;;;;;;;;;5093311;28;20472;-72
2022/12/26 15:08:16;;;;;;;21.83;12.65;;;;;;;;;;5092825;28;20140;-72
2022/12/26 15:11:00;;;;;;;20.30;14.57;;;;;;;;;;5091253;28;20104;-72
2022/12/26 15:13:44;;;;;;;25.50;14.32;;;;;;;;;;5091226;28;20047;-73
2022/12/26 15:16:09;;;;;;;22.92;15.13;;;;;;;;;;5092308;28;20074;-71
2022/12/26 15:19:07;;;;;;;21.55;13.68;;;;;;;;;;5091369;28;20484;-72
2022/12/26 15:21:53;;;;;;;26.13;12.82;;;;;;;;;;5057959;28;20107;-72
2022/12/26 15:24:18;;;;;;;27.80;18.73;;;;;;;;;;5081156;28;20036;-70
2022/12/26 15:26:56;;;;;;;28.90;18.95;;;;;;;;;;5092805;28;20038;-73
2022/12/26 15:29:28;;;;;;;21.08;12.77;;;;;;;;;;5092161;28;20035;-71
2022/12/26 15:31:56;;;;;;;28.17;14.98;;;;;;;;;;5091389;28;20028;-71
2022/12/26 15:34:27;;;;;;;14.57;7.03;;;;;;;;;;5091024;28;20019;-72
2022/12/26 15:37:03;;;;;;;26.70;16.88;;;;;;;;;;5092312;28;20032;-73
2022/12/26 15:39:38;;;;;;;35.03;19.10;;;;;;;;;;5091188;28;20379;-74
2022/12/26 15:42:19;;;;;;;30.48;17.58;;;;;;;;;;5091207;28;20392;-72
2022/12/26 15:45:07;;;;;;;27.88;15.98;;;;;;;;;;5092392;28;20059;-72
2022/12/26 15:47:39;;;;;;;33.50;20.45;;;;;;;;;;5090743;28;20020;-71
2022/12/26 15:50:23;;;;;;;33.50;19.98;;;;;;;;;;5091788;28;20473;-71
2022/12/26 15:52:49;;;;;;;30.30;18.10;;;;;;;;;;5092224;28;20012;-70
2022/12/26 15:55:29;;;;;;;27.95;17.77;;;;;;;;;;5092563;28;20409;-72
2022/12/26 15:58:00;;;;;;;26.73;14.85;;;;;;;;;;5090695;28;20107;-73
2022/12/26 16:00:31;;;;;;;35.83;21.33;;;;;;;;;;5092843;28;20477;-71
2022/12/26 16:03:05;;;;;;;34.00;17.60;;;;;;;;;;5096480;28;20048;-73
2022/12/26 16:05:38;;;;;;;30.98;16.60;;;;;;;;;;5094782;28;20047;-74
2022/12/26 16:08:04;;;;;;;28.83;17.58;;;;;;;;;;5095000;28;20074;-75
2022/12/26 16:10:33;;;;;;;34.30;20.00;;;;;;;;;;5096132;28;20048;-71
2022/12/26 16:13:05;;;;;;;30.83;18.05;;;;;;;;;;5095750;28;20069;-72
2022/12/26 16:15:31;;;;;;;38.80;19.88;;;;;;;;;;5094207;28;20024;-72
2022/12/26 16:18:16;;;;;;;35.50;19.40;;;;;;;;;;5094711;28;20024;-72
2022/12/26 16:23:28;;;;;;;27.80;15.25;;;;;;;;;;5095638;28;20464;-72
2022/12/26 16:25:54;;;;;;;32.05;19.15;;;;;;;;;;5095902;28;20089;-73
2022/12/26 16:28:23;;;;;;;25.33;13.70;;;;;;;;;;5095577;28;20118;-73
2022/12/26 16:30:49;;;;;;;21.10;11.80;;;;;;;;;;5095595;28;20024;-73
2022/12/26 16:33:14;;;;;;;28.63;18.42;;;;;;;;;;5096019;28;20346;-71
2022/12/26 16:35:41;;;;;;;25.42;15.73;;;;;;;;;;5094304;28;20066;-72
2022/12/26 16:38:10;;;;;;;30.63;18.08;;;;;;;;;;5096026;28;20065;-71
2022/12/26 16:40:39;;;;;;;32.65;19.58;;;;;;;;;;5094815;28;20016;-72
2022/12/26 16:43:20;;;;;;;32.88;17.77;;;;;;;;;;5095686;28;20092;-72
2022/12/26 16:45:50;;;;;;;31.02;20.38;;;;;;;;;;5095320;28;20451;-71
2022/12/26 16:48:18;;;;;;;40.53;21.27;;;;;;;;;;5095102;28;20496;-72
2022/12/26 16:50:48;;;;;;;29.92;15.55;;;;;;;;;;5095335;28;20058;-71
2022/12/26 16:53:19;;;;;;;27.50;14.25;;;;;;;;;;5094112;28;20024;-72
2022/12/26 16:55:44;;;;;;;32.97;20.40;;;;;;;;;;5095391;28;20559;-73
2022/12/26 16:58:15;;;;;;;29.05;14.50;;;;;;;;;;5093373;28;20048;-69
2022/12/26 17:00:46;;;;;;;34.13;20.48;;;;;;;;;;5094976;28;20051;-74
2022/12/26 17:03:18;;;;;;;32.35;17.98;;;;;;;;;;5094974;28;20044;-70
2022/12/26 17:05:45;;;;;;;37.50;21.02;;;;;;;;;;5093939;28;20422;-71
2022/12/26 17:08:12;;;;;;;20.52;11.40;;;;;;;;;;5094777;28;20032;-72
2022/12/26 17:10:37;;;;;;;31.38;16.13;;;;;;;;;;5093472;28;20125;-71
2022/12/26 17:13:04;;;;;;;32.10;14.98;;;;;;;;;;5092799;28;20086;-72